createdAt,value
2023-09-05T00:06:18.297Z,17.40
2023-09-05T00:16:20.350Z,17.20
2023-09-05T00:26:23.703Z,17.00
2023-09-05T00:36:25.904Z,16.90
2023-09-05T00:46:29.659Z,16.90
2023-09-05T00:56:32.161Z,16.90
2023-09-05T01:06:48.044Z,16.80
2023-09-05T01:16:50.057Z,16.70
2023-09-05T01:26:54.483Z,16.50
2023-09-05T01:36:56.488Z,16.40
2023-09-05T01:46:59.842Z,16.30
2023-09-05T01:57:01.834Z,16.10
2023-09-05T02:07:05.305Z,16.00
2023-09-05T02:17:08.471Z,15.90
2023-09-05T02:27:12.127Z,15.80
2023-09-05T02:37:14.094Z,15.70
2023-09-05T02:47:17.424Z,15.60
2023-09-05T02:57:19.419Z,15.60
2023-09-05T03:07:23.302Z,15.50
2023-09-05T03:17:25.366Z,15.50
2023-09-05T03:27:28.732Z,15.50
2023-09-05T03:37:30.727Z,15.60
2023-09-05T03:47:37.299Z,15.70
2023-09-05T03:57:43.355Z,15.80
2023-09-05T04:07:46.701Z,15.80
2023-09-05T04:17:49.020Z,15.80
2023-09-05T04:27:53.100Z,16.00
2023-09-05T04:37:55.112Z,15.90
2023-09-05T04:47:58.804Z,16.00
2023-09-05T04:58:00.849Z,16.00
2023-09-05T05:08:04.595Z,16.10
2023-09-05T05:18:09.457Z,16.10
2023-09-05T05:28:13.002Z,16.20
2023-09-05T05:38:14.940Z,16.20
2023-09-05T05:48:18.320Z,16.30
2023-09-05T05:58:20.354Z,16.20
2023-09-05T06:08:23.973Z,16.50
2023-09-05T06:18:27.185Z,16.60
2023-09-05T06:28:31.877Z,16.70
2023-09-05T06:38:33.861Z,16.90
2023-09-05T06:48:39.665Z,17.10
2023-09-05T06:58:41.752Z,17.30
2023-09-05T07:08:45.375Z,17.60
2023-09-05T07:18:47.345Z,17.80
2023-09-05T07:28:50.742Z,17.90
2023-09-05T07:38:52.688Z,18.30
2023-09-05T07:48:56.226Z,18.70
2023-09-05T07:58:58.287Z,18.90
2023-09-05T08:09:01.624Z,19.00
2023-09-05T08:19:03.625Z,19.10
2023-09-05T08:29:06.943Z,19.70
2023-09-05T08:39:08.964Z,20.10
2023-09-05T08:49:12.430Z,20.60
2023-09-05T08:59:15.159Z,21.80
2023-09-05T09:09:35.433Z,23.00
2023-09-05T09:19:39.563Z,25.20
2023-09-05T09:29:43.345Z,27.80
2023-09-05T09:39:49.611Z,29.90
2023-09-05T09:49:53.094Z,31.30
2023-09-05T10:00:01.388Z,32.10
2023-09-05T10:10:06.388Z,32.50
2023-09-05T10:20:10.695Z,31.90
2023-09-05T10:30:14.120Z,31.40
2023-09-05T10:40:16.165Z,31.60
2023-09-05T10:50:19.705Z,31.80
2023-09-05T11:00:30.787Z,31.20
2023-09-05T11:10:36.086Z,31.60
2023-09-05T11:20:38.815Z,29.30
2023-09-05T11:30:44.555Z,29.40
2023-09-05T11:40:50.992Z,29.20
2023-09-05T11:50:55.619Z,28.50
2023-09-05T12:00:57.684Z,28.10
2023-09-05T12:11:05.295Z,28.00
2023-09-05T12:21:07.273Z,27.90
2023-09-05T12:31:12.388Z,27.70
2023-09-05T12:41:15.704Z,27.40
2023-09-05T12:51:19.267Z,27.50
2023-09-05T13:01:22.290Z,27.50
2023-09-05T13:11:25.791Z,27.50
2023-09-05T13:21:27.796Z,27.60
2023-09-05T13:31:31.149Z,27.60
2023-09-05T13:41:33.173Z,27.70
2023-09-05T13:51:36.513Z,27.60
2023-09-05T14:01:38.505Z,27.70
2023-09-05T14:11:44.456Z,27.80
2023-09-05T14:21:46.935Z,28.00
2023-09-05T14:31:50.342Z,28.40
2023-09-05T14:41:53.383Z,28.50
2023-09-05T14:51:56.708Z,28.50
2023-09-05T15:01:58.667Z,28.40
2023-09-05T15:12:02.140Z,28.30
2023-09-05T15:22:05.308Z,28.60
2023-09-05T15:32:08.849Z,28.60
2023-09-05T15:42:10.845Z,28.70
2023-09-05T15:52:14.352Z,28.30
2023-09-05T16:02:20.197Z,28.60
2023-09-05T16:12:24.416Z,28.40
2023-09-05T16:22:26.571Z,28.10
2023-09-05T16:32:29.916Z,27.50
2023-09-05T16:42:31.948Z,27.20
2023-09-05T16:52:35.333Z,27.00
2023-09-05T17:02:37.351Z,26.60
2023-09-05T17:12:40.885Z,26.20
2023-09-05T17:22:44.746Z,26.00
2023-09-05T17:32:48.711Z,25.50
2023-09-05T17:42:50.718Z,25.00
2023-09-05T18:04:00.368Z,24.50
2023-09-05T18:25:03.903Z,23.80
2023-09-05T18:35:06.340Z,23.40
2023-09-05T18:45:11.047Z,23.30
2023-09-05T18:55:13.616Z,23.00
2023-09-05T19:05:26.460Z,22.80
2023-09-05T19:15:28.518Z,22.50
2023-09-05T19:25:36.398Z,22.40
2023-09-05T19:35:38.391Z,22.10
2023-09-05T19:45:43.848Z,21.80
2023-09-05T19:55:45.857Z,21.70
2023-09-05T20:05:49.269Z,21.50
2023-09-05T20:16:05.812Z,21.40
2023-09-05T20:26:09.179Z,21.20
2023-09-05T20:36:11.179Z,21.10
2023-09-05T20:57:13.144Z,20.80
2023-09-05T21:07:15.148Z,20.70
2023-09-05T21:17:18.474Z,20.60
2023-09-05T21:27:20.668Z,20.50
2023-09-05T21:37:24.557Z,20.40
2023-09-05T21:47:26.627Z,20.10
2023-09-05T21:57:30.029Z,20.00
2023-09-05T22:07:32.034Z,20.00
2023-09-05T22:17:35.551Z,19.70
2023-09-05T22:27:37.679Z,19.40
2023-09-05T22:37:41.605Z,19.20
2023-09-05T22:47:43.774Z,19.00
2023-09-05T22:57:47.370Z,18.80
2023-09-05T23:07:49.422Z,18.70
2023-09-05T23:17:54.014Z,18.50
2023-09-05T23:27:56.205Z,18.30
2023-09-05T23:37:59.621Z,18.20
2023-09-05T23:48:01.702Z,18.10
2023-09-05T23:58:05.335Z,18.00
